Time;durP1;ratioP1;P1;durP2;ratioP2;P2;SDS_P1;SDS_P2;PMS_P1;PMS_P2;Temp;Humidity;BMP_temperature;BMP_pressure;BME280_temperature;BME280_humidity;BME280_pressure;Samples;Min_cycle;Max_cycle;Signal;HPM_P1;HPM_P2
2023/07/31 00:00:31;;;;;;;2.85;1.00;;;;;;;;;;5092008;28;20581;-59
2023/07/31 00:02:58;;;;;;;1.02;0.77;;;;;;;;;;5091005;28;20239;-59
2023/07/31 00:05:25;;;;;;;4.20;0.93;;;;;;;;;;5091945;28;20211;-60
2023/07/31 00:07:53;;;;;;;2.30;0.93;;;;;;;;;;5091563;28;20209;-61
2023/07/31 00:10:21;;;;;;;1.42;1.33;;;;;;;;;;5091958;28;20217;-60
2023/07/31 00:12:48;;;;;;;2.20;0.95;;;;;;;;;;5090866;28;20210;-59
2023/07/31 00:15:16;;;;;;;2.22;1.08;;;;;;;;;;5091736;28;20229;-60
2023/07/31 00:17:43;;;;;;;0.80;0.80;;;;;;;;;;5090889;28;20558;-59
2023/07/31 00:20:20;;;;;;;2.17;1.00;;;;;;;;;;5091677;28;20206;-59
2023/07/31 00:22:47;;;;;;;0.98;0.95;;;;;;;;;;5091576;28;20206;-59
2023/07/31 00:25:14;;;;;;;1.25;0.98;;;;;;;;;;5091639;28;20214;-59
2023/07/31 00:27:44;;;;;;;1.30;0.85;;;;;;;;;;5091383;28;20206;-59
2023/07/31 00:30:11;;;;;;;1.63;1.00;;;;;;;;;;5090528;28;20206;-60
2023/07/31 00:32:40;;;;;;;0.93;0.90;;;;;;;;;;5091083;28;20242;-59
2023/07/31 00:35:07;;;;;;;1.70;0.95;;;;;;;;;;5091300;28;20667;-59
2023/07/31 00:37:34;;;;;;;0.98;0.90;;;;;;;;;;5090894;28;20680;-59
2023/07/31 00:40:03;;;;;;;1.58;0.88;;;;;;;;;;5090162;28;20210;-59
2023/07/31 00:42:30;;;;;;;1.33;0.90;;;;;;;;;;5090710;28;20234;-60
2023/07/31 00:44:57;;;;;;;1.83;0.88;;;;;;;;;;5091095;28;20210;-60
2023/07/31 00:47:24;;;;;;;1.20;1.00;;;;;;;;;;5090708;28;20203;-60
2023/07/31 00:49:53;;;;;;;0.82;0.82;;;;;;;;;;5089828;28;20213;-59
2023/07/31 00:52:20;;;;;;;2.80;1.38;;;;;;;;;;5090601;28;20546;-60
2023/07/31 00:54:47;;;;;;;1.75;1.30;;;;;;;;;;5090462;28;20312;-60
2023/07/31 00:57:15;;;;;;;5.78;1.02;;;;;;;;;;5090981;28;20230;-60
2023/07/31 00:59:42;;;;;;;2.55;1.13;;;;;;;;;;5087904;28;20198;-60
2023/07/31 01:02:09;;;;;;;2.90;1.27;;;;;;;;;;5088401;28;20211;-59
2023/07/31 01:04:36;;;;;;;0.98;0.98;;;;;;;;;;5088651;28;20290;-60
2023/07/31 01:07:08;;;;;;;1.85;0.80;;;;;;;;;;5087234;28;20218;-59
2023/07/31 01:09:38;;;;;;;2.53;0.68;;;;;;;;;;5090487;28;20198;-59
2023/07/31 01:12:05;;;;;;;3.75;1.00;;;;;;;;;;5089617;28;20232;-58
2023/07/31 01:14:32;;;;;;;1.05;0.93;;;;;;;;;;5090539;28;20213;-60
2023/07/31 01:16:59;;;;;;;2.05;1.10;;;;;;;;;;5090401;28;20233;-59
2023/07/31 01:19:28;;;;;;;1.05;1.00;;;;;;;;;;5089231;28;20206;-60
2023/07/31 01:22:02;;;;;;;0.80;0.80;;;;;;;;;;5089836;28;20210;-59
2023/07/31 01:24:37;;;;;;;3.38;1.13;;;;;;;;;;5089513;28;20664;-59
2023/07/31 01:27:07;;;;;;;2.92;0.98;;;;;;;;;;5090139;28;20221;-59
2023/07/31 01:29:37;;;;;;;3.15;1.13;;;;;;;;;;5089287;28;20203;-60
2023/07/31 01:32:06;;;;;;;3.90;1.10;;;;;;;;;;5089629;28;20226;-60
2023/07/31 01:34:33;;;;;;;1.40;1.00;;;;;;;;;;5089254;28;20202;-61
2023/07/31 01:37:01;;;;;;;3.45;1.02;;;;;;;;;;5089917;28;20684;-59
2023/07/31 01:39:28;;;;;;;1.20;0.98;;;;;;;;;;5089797;28;20218;-60
2023/07/31 01:41:55;;;;;;;2.45;1.00;;;;;;;;;;5088717;28;20213;-60
2023/07/31 01:44:23;;;;;;;2.88;1.17;;;;;;;;;;5089749;28;20226;-59
2023/07/31 01:46:50;;;;;;;1.83;0.90;;;;;;;;;;5088977;28;20205;-60
2023/07/31 01:49:17;;;;;;;4.15;1.08;;;;;;;;;;5089522;28;20202;-59
2023/07/31 01:51:44;;;;;;;1.08;0.98;;;;;;;;;;5089146;28;20582;-59
2023/07/31 01:54:12;;;;;;;1.73;1.20;;;;;;;;;;5088921;28;20209;-60
2023/07/31 01:56:39;;;;;;;1.95;1.10;;;;;;;;;;5089332;28;20727;-59
2023/07/31 01:59:06;;;;;;;1.17;1.10;;;;;;;;;;5089600;28;20210;-60
2023/07/31 02:01:34;;;;;;;1.10;1.10;;;;;;;;;;5088065;28;20205;-60
2023/07/31 02:04:01;;;;;;;2.75;1.20;;;;;;;;;;5089522;28;20206;-59
2023/07/31 02:06:28;;;;;;;1.20;1.10;;;;;;;;;;5088424;28;20202;-60
2023/07/31 02:08:55;;;;;;;1.52;0.95;;;;;;;;;;5089468;28;20202;-59
2023/07/31 02:11:22;;;;;;;1.17;0.85;;;;;;;;;;5087694;28;20206;-60
2023/07/31 02:13:49;;;;;;;2.33;1.15;;;;;;;;;;5089358;28;20206;-60
2023/07/31 02:16:16;;;;;;;2.33;0.98;;;;;;;;;;5088321;28;20218;-60
2023/07/31 02:18:44;;;;;;;0.93;0.93;;;;;;;;;;5089203;28;20571;-60
2023/07/31 02:21:11;;;;;;;1.35;1.08;;;;;;;;;;5088874;28;20210;-59
2023/07/31 02:23:39;;;;;;;1.95;1.05;;;;;;;;;;5087953;28;20205;-60
2023/07/31 02:26:06;;;;;;;1.02;0.95;;;;;;;;;;5089314;28;20197;-59
2023/07/31 02:28:33;;;;;;;2.00;1.23;;;;;;;;;;5088256;28;20214;-60
2023/07/31 02:31:00;;;;;;;1.55;1.08;;;;;;;;;;5089037;28;20238;-59
2023/07/31 02:33:27;;;;;;;2.65;1.25;;;;;;;;;;5087916;28;20209;-59
2023/07/31 02:35:55;;;;;;;1.67;1.00;;;;;;;;;;5089143;28;20636;-60
2023/07/31 02:38:22;;;;;;;1.02;1.02;;;;;;;;;;5088199;28;20209;-59
2023/07/31 02:40:49;;;;;;;2.15;1.20;;;;;;;;;;5088944;28;20213;-59
2023/07/31 02:43:16;;;;;;;1.27;1.17;;;;;;;;;;5088700;28;20225;-59
2023/07/31 02:45:43;;;;;;;5.30;1.48;;;;;;;;;;5089059;28;20210;-58
2023/07/31 02:48:10;;;;;;;1.60;1.23;;;;;;;;;;5089049;28;20214;-59
2023/07/31 02:50:37;;;;;;;1.20;1.10;;;;;;;;;;5087800;28;20218;-59
2023/07/31 02:53:06;;;;;;;1.88;1.48;;;;;;;;;;5089048;28;20217;-59
2023/07/31 02:55:33;;;;;;;1.17;1.05;;;;;;;;;;5088646;28;20209;-60
2023/07/31 02:58:00;;;;;;;1.10;0.90;;;;;;;;;;5088053;28;20653;-59
2023/07/31 03:00:27;;;;;;;3.13;1.15;;;;;;;;;;5089025;28;20210;-59
2023/07/31 03:02:54;;;;;;;4.47;1.45;;;;;;;;;;5088655;28;20210;-60
2023/07/31 03:05:21;;;;;;;2.17;1.48;;;;;;;;;;5080390;28;20214;-60
2023/07/31 03:07:48;;;;;;;1.95;0.93;;;;;;;;;;5088902;28;20225;-59
2023/07/31 03:10:26;;;;;;;1.55;1.30;;;;;;;;;;5088676;28;20198;-60
2023/07/31 03:12:53;;;;;;;3.15;1.60;;;;;;;;;;5088460;28;20252;-60
2023/07/31 03:15:20;;;;;;;4.70;1.10;;;;;;;;;;5091944;28;20199;-59
2023/07/31 03:17:47;;;;;;;2.78;1.27;;;;;;;;;;5092607;28;20597;-60
2023/07/31 03:20:14;;;;;;;2.05;1.23;;;;;;;;;;5092107;28;20213;-60
2023/07/31 03:22:41;;;;;;;1.25;1.10;;;;;;;;;;5092011;28;20209;-60
2023/07/31 03:25:09;;;;;;;2.38;1.55;;;;;;;;;;5092146;28;20221;-60
2023/07/31 03:27:38;;;;;;;2.25;1.27;;;;;;;;;;5092596;28;20275;-60
2023/07/31 03:30:05;;;;;;;4.00;1.10;;;;;;;;;;5088800;28;20203;-60
2023/07/31 03:32:32;;;;;;;3.58;1.20;;;;;;;;;;5072022;28;20242;-60
2023/07/31 03:34:59;;;;;;;1.95;1.08;;;;;;;;;;5083252;28;20206;-59
2023/07/31 03:37:27;;;;;;;1.10;1.10;;;;;;;;;;5091296;28;20233;-59
2023/07/31 03:39:54;;;;;;;2.10;1.17;;;;;;;;;;5092300;28;20217;-60
2023/07/31 03:42:21;;;;;;;2.42;1.20;;;;;;;;;;5091992;28;20672;-59
2023/07/31 03:44:49;;;;;;;1.88;1.50;;;;;;;;;;5091989;28;20233;-60
2023/07/31 03:47:16;;;;;;;2.33;1.42;;;;;;;;;;5091518;28;20282;-59
2023/07/31 03:49:43;;;;;;;3.65;1.65;;;;;;;;;;5091800;28;20229;-59
2023/07/31 03:52:10;;;;;;;1.63;1.30;;;;;;;;;;5091832;28;20202;-59
2023/07/31 03:54:37;;;;;;;2.33;1.42;;;;;;;;;;5089154;28;20199;-60
2023/07/31 03:57:05;;;;;;;3.63;1.30;;;;;;;;;;5079778;28;20226;-59
2023/07/31 03:59:32;;;;;;;2.90;1.27;;;;;;;;;;5091588;28;20202;-60
2023/07/31 04:02:00;;;;;;;4.03;1.55;;;;;;;;;;5090513;28;20794;-59
2023/07/31 04:04:27;;;;;;;4.07;1.40;;;;;;;;;;5091960;28;20203;-59
2023/07/31 04:06:54;;;;;;;1.83;1.33;;;;;;;;;;5090443;28;20218;-60
2023/07/31 04:09:22;;;;;;;2.15;1.13;;;;;;;;;;5090958;28;20195;-59
2023/07/31 04:11:49;;;;;;;3.42;1.30;;;;;;;;;;5090887;28;20211;-60
2023/07/31 04:14:16;;;;;;;1.38;1.27;;;;;;;;;;5091432;28;20621;-60
2023/07/31 04:16:43;;;;;;;2.15;1.60;;;;;;;;;;5081146;28;20222;-60
2023/07/31 04:19:12;;;;;;;2.83;1.40;;;;;;;;;;5090202;28;20218;-60
2023/07/31 04:21:39;;;;;;;1.98;1.38;;;;;;;;;;5090709;28;20238;-59
2023/07/31 04:24:06;;;;;;;1.10;1.10;;;;;;;;;;5091047;28;20202;-60
2023/07/31 04:26:33;;;;;;;2.28;1.73;;;;;;;;;;5090965;28;20209;-60
2023/07/31 04:29:00;;;;;;;2.67;1.40;;;;;;;;;;5090909;28;20202;-60
2023/07/31 04:31:27;;;;;;;1.50;1.35;;;;;;;;;;5091123;28;20238;-59
2023/07/31 04:33:54;;;;;;;2.40;1.30;;;;;;;;;;5090712;28;20578;-60
2023/07/31 04:36:23;;;;;;;3.03;1.50;;;;;;;;;;5090650;28;20256;-60
2023/07/31 04:38:50;;;;;;;1.50;1.13;;;;;;;;;;5089718;28;20213;-60
2023/07/31 04:41:17;;;;;;;3.50;1.25;;;;;;;;;;5090629;28;20206;-60
2023/07/31 04:43:44;;;;;;;1.45;1.15;;;;;;;;;;5090632;28;20229;-60
2023/07/31 04:46:11;;;;;;;6.38;1.35;;;;;;;;;;5090101;28;20296;-60
2023/07/31 04:48:38;;;;;;;2.38;1.20;;;;;;;;;;5089975;28;20623;-60
2023/07/31 04:51:05;;;;;;;1.52;1.50;;;;;;;;;;5090232;28;20321;-59
2023/07/31 04:53:34;;;;;;;2.60;1.30;;;;;;;;;;5090171;28;20206;-59
2023/07/31 04:56:01;;;;;;;2.58;1.65;;;;;;;;;;5087149;28;20194;-60
2023/07/31 04:58:28;;;;;;;1.73;1.23;;;;;;;;;;5086085;28;20708;-59
2023/07/31 05:00:55;;;;;;;4.28;1.48;;;;;;;;;;5088138;28;20202;-60
2023/07/31 05:03:22;;;;;;;1.77;1.58;;;;;;;;;;5089056;28;20201;-60
2023/07/31 05:05:49;;;;;;;4.18;1.88;;;;;;;;;;5088031;28;20233;-60
2023/07/31 05:08:17;;;;;;;2.17;1.50;;;;;;;;;;5090248;28;20207;-59
2023/07/31 05:10:45;;;;;;;1.67;1.08;;;;;;;;;;5089484;28;20256;-60
2023/07/31 05:13:12;;;;;;;1.73;1.40;;;;;;;;;;5089606;28;20207;-59
2023/07/31 05:15:39;;;;;;;2.60;1.20;;;;;;;;;;5090203;28;20225;-62
2023/07/31 05:18:06;;;;;;;3.35;1.50;;;;;;;;;;5089665;28;20233;-59
2023/07/31 05:20:33;;;;;;;1.55;1.40;;;;;;;;;;5090023;28;20316;-59
2023/07/31 05:23:01;;;;;;;1.20;1.20;;;;;;;;;;5090178;28;20226;-59
2023/07/31 05:25:28;;;;;;;3.70;1.40;;;;;;;;;;5088422;28;20215;-60
2023/07/31 05:27:56;;;;;;;3.50;1.40;;;;;;;;;;5090167;28;20229;-59
2023/07/31 05:30:23;;;;;;;2.08;1.13;;;;;;;;;;5090009;28;20213;-59
2023/07/31 05:32:50;;;;;;;2.05;1.50;;;;;;;;;;5089883;28;20253;-60
2023/07/31 05:35:17;;;;;;;1.95;1.30;;;;;;;;;;5089471;28;20202;-62
2023/07/31 05:37:44;;;;;;;2.15;1.30;;;;;;;;;;5077092;28;20879;-62
2023/07/31 05:40:12;;;;;;;3.40;1.52;;;;;;;;;;5088935;28;20202;-60
2023/07/31 05:42:39;;;;;;;2.47;1.60;;;;;;;;;;5089625;28;20205;-60
2023/07/31 05:45:08;;;;;;;2.88;1.50;;;;;;;;;;5089070;28;20259;-61
2023/07/31 05:47:36;;;;;;;5.72;1.45;;;;;;;;;;5089197;28;20207;-60
2023/07/31 05:50:03;;;;;;;2.22;1.40;;;;;;;;;;5089258;28;20214;-60
2023/07/31 05:52:30;;;;;;;1.95;1.20;;;;;;;;;;5088806;28;20210;-61
2023/07/31 05:54:57;;;;;;;2.70;1.13;;;;;;;;;;5069953;28;20211;-60
2023/07/31 05:57:24;;;;;;;2.78;1.20;;;;;;;;;;5087747;28;20226;-61
2023/07/31 05:59:53;;;;;;;1.10;1.10;;;;;;;;;;5089161;28;20209;-60
2023/07/31 06:02:21;;;;;;;2.15;1.35;;;;;;;;;;5089427;28;20206;-60
2023/07/31 06:04:48;;;;;;;1.63;1.08;;;;;;;;;;5079951;28;20282;-60
2023/07/31 06:07:15;;;;;;;1.95;1.20;;;;;;;;;;5074748;28;20194;-61
2023/07/31 06:09:42;;;;;;;1.75;1.30;;;;;;;;;;5078592;28;20214;-60
2023/07/31 06:12:10;;;;;;;3.13;1.40;;;;;;;;;;5067182;28;20242;-61
2023/07/31 06:14:37;;;;;;;2.58;1.40;;;;;;;;;;5078285;28;20699;-59
2023/07/31 06:17:04;;;;;;;2.22;1.33;;;;;;;;;;5088261;28;20240;-60
2023/07/31 06:19:32;;;;;;;1.27;1.27;;;;;;;;;;5084809;28;20207;-60
2023/07/31 06:21:59;;;;;;;7.22;1.50;;;;;;;;;;5088444;28;20213;-60
2023/07/31 06:24:26;;;;;;;4.78;1.55;;;;;;;;;;5076851;28;20561;-60
2023/07/31 06:26:53;;;;;;;3.00;1.45;;;;;;;;;;5075284;28;20289;-60
2023/07/31 06:29:20;;;;;;;2.72;1.60;;;;;;;;;;5088956;28;20206;-61
2023/07/31 06:31:47;;;;;;;1.70;1.60;;;;;;;;;;5088166;28;20253;-61
2023/07/31 06:34:14;;;;;;;3.70;1.30;;;;;;;;;;5089102;28;20244;-59
2023/07/31 06:36:43;;;;;;;2.25;1.60;;;;;;;;;;5087750;28;20214;-61
2023/07/31 06:39:10;;;;;;;2.35;1.35;;;;;;;;;;5088789;28;20206;-60
2023/07/31 06:41:37;;;;;;;1.27;1.15;;;;;;;;;;5087800;28;20670;-60
2023/07/31 06:44:04;;;;;;;2.00;1.33;;;;;;;;;;5088797;28;20222;-60
2023/07/31 06:46:31;;;;;;;3.33;1.60;;;;;;;;;;5087763;28;20233;-59
2023/07/31 06:48:58;;;;;;;2.50;1.33;;;;;;;;;;5091092;28;20207;-60
2023/07/31 06:51:25;;;;;;;3.83;1.38;;;;;;;;;;5093045;28;20213;-60
2023/07/31 06:53:54;;;;;;;3.13;1.10;;;;;;;;;;5092978;28;20217;-60
2023/07/31 06:56:22;;;;;;;2.55;1.30;;;;;;;;;;5091861;28;20293;-60
2023/07/31 06:58:49;;;;;;;1.55;1.27;;;;;;;;;;5093171;28;20230;-61
2023/07/31 07:01:16;;;;;;;2.00;1.50;;;;;;;;;;5092750;28;20297;-61
2023/07/31 07:03:43;;;;;;;1.27;1.13;;;;;;;;;;5092842;28;20707;-61
2023/07/31 07:06:10;;;;;;;2.67;1.08;;;;;;;;;;5092452;28;20198;-62
2023/07/31 07:08:37;;;;;;;1.63;1.52;;;;;;;;;;5092483;28;20613;-61
2023/07/31 07:11:06;;;;;;;1.60;1.40;;;;;;;;;;5091426;28;20215;-61
2023/07/31 07:13:33;;;;;;;2.70;1.00;;;;;;;;;;5092524;28;20237;-61
2023/07/31 07:16:00;;;;;;;1.48;1.13;;;;;;;;;;5091188;28;20739;-61
2023/07/31 07:18:27;;;;;;;3.65;1.42;;;;;;;;;;5092388;28;20237;-61
2023/07/31 07:20:57;;;;;;;1.30;1.20;;;;;;;;;;5086190;28;20207;-60
2023/07/31 07:23:24;;;;;;;1.42;1.35;;;;;;;;;;5072065;28;20222;-61
2023/07/31 07:25:51;;;;;;;1.73;1.30;;;;;;;;;;5084016;28;20213;-60
2023/07/31 07:28:20;;;;;;;3.45;1.30;;;;;;;;;;5085793;28;20198;-60
2023/07/31 07:30:52;;;;;;;2.13;1.45;;;;;;;;;;5085541;28;20207;-61
2023/07/31 07:33:19;;;;;;;1.58;1.20;;;;;;;;;;5088904;28;20259;-62
2023/07/31 07:35:46;;;;;;;2.65;1.80;;;;;;;;;;5090140;28;20202;-62
2023/07/31 07:38:13;;;;;;;3.03;1.58;;;;;;;;;;5071316;28;20649;-62
2023/07/31 07:40:40;;;;;;;3.83;1.30;;;;;;;;;;5071602;28;20214;-61
2023/07/31 07:43:07;;;;;;;6.50;1.58;;;;;;;;;;5090922;28;20218;-60
2023/07/31 07:45:36;;;;;;;1.70;1.30;;;;;;;;;;5091735;28;20233;-61
2023/07/31 07:48:03;;;;;;;3.08;1.60;;;;;;;;;;5090349;28;20680;-61
2023/07/31 07:50:30;;;;;;;2.15;1.40;;;;;;;;;;5091678;28;20210;-61
2023/07/31 07:52:57;;;;;;;2.55;1.60;;;;;;;;;;5090417;28;20206;-61
2023/07/31 07:55:24;;;;;;;2.28;1.27;;;;;;;;;;5091602;28;20214;-61
2023/07/31 07:57:51;;;;;;;2.80;1.63;;;;;;;;;;5089919;28;20234;-61
2023/07/31 08:00:18;;;;;;;2.42;1.08;;;;;;;;;;5091033;28;20226;-61
2023/07/31 08:02:47;;;;;;;3.75;1.48;;;;;;;;;;5091241;28;20199;-60
2023/07/31 08:05:14;;;;;;;4.00;1.30;;;;;;;;;;5091039;28;20232;-59
2023/07/31 08:07:41;;;;;;;1.05;1.05;;;;;;;;;;5090442;28;20202;-61
2023/07/31 08:10:08;;;;;;;1.60;1.30;;;;;;;;;;5090886;28;20202;-61
2023/07/31 08:12:35;;;;;;;2.80;1.25;;;;;;;;;;5090825;28;20218;-65
2023/07/31 08:15:02;;;;;;;2.00;1.23;;;;;;;;;;5087410;28;20618;-69
2023/07/31 08:17:29;;;;;;;2.08;1.33;;;;;;;;;;5070366;28;20203;-62
2023/07/31 08:19:58;;;;;;;2.78;1.23;;;;;;;;;;5082833;28;20222;-61
2023/07/31 08:22:26;;;;;;;4.20;1.25;;;;;;;;;;5090971;28;20230;-61
2023/07/31 08:24:53;;;;;;;2.78;1.35;;;;;;;;;;5083738;28;20276;-59
2023/07/31 08:27:20;;;;;;;2.90;1.50;;;;;;;;;;5071607;28;20218;-59
2023/07/31 08:29:47;;;;;;;2.17;1.27;;;;;;;;;;5072750;28;20207;-59
2023/07/31 08:32:14;;;;;;;1.00;0.82;;;;;;;;;;5086822;28;20222;-60
2023/07/31 08:34:41;;;;;;;1.27;1.20;;;;;;;;;;5070386;28;20242;-64
2023/07/31 08:37:11;;;;;;;1.65;1.25;;;;;;;;;;5084256;28;20202;-64
2023/07/31 08:39:39;;;;;;;2.22;1.20;;;;;;;;;;5078217;28;20269;-63
2023/07/31 08:42:09;;;;;;;1.58;1.48;;;;;;;;;;5091237;28;20206;-64
2023/07/31 08:44:36;;;;;;;1.33;1.27;;;;;;;;;;5090030;28;20226;-64
2023/07/31 08:47:03;;;;;;;2.33;1.45;;;;;;;;;;5090911;28;20217;-64
2023/07/31 08:49:32;;;;;;;2.25;1.17;;;;;;;;;;5088308;28;20205;-64
2023/07/31 08:51:59;;;;;;;1.10;1.10;;;;;;;;;;5090616;28;20210;-64
2023/07/31 08:54:30;;;;;;;1.20;1.20;;;;;;;;;;5089644;28;20866;-64
2023/07/31 08:56:59;;;;;;;1.25;1.15;;;;;;;;;;5090538;28;20202;-64
2023/07/31 08:59:27;;;;;;;2.97;1.58;;;;;;;;;;5087145;28;20222;-64
2023/07/31 09:01:57;;;;;;;1.23;1.00;;;;;;;;;;5088289;28;20202;-65
2023/07/31 09:04:24;;;;;;;1.55;1.40;;;;;;;;;;5087677;28;20213;-64
2023/07/31 09:06:52;;;;;;;4.10;1.20;;;;;;;;;;5090240;28;20233;-64
2023/07/31 09:09:20;;;;;;;5.63;1.30;;;;;;;;;;5088274;28;20205;-64
2023/07/31 09:11:49;;;;;;;1.15;1.02;;;;;;;;;;5083013;28;20276;-64
2023/07/31 09:14:17;;;;;;;3.30;1.42;;;;;;;;;;5076907;28;20214;-64
2023/07/31 09:16:53;;;;;;;3.80;1.40;;;;;;;;;;5076321;28;20195;-64
2023/07/31 09:19:26;;;;;;;1.85;1.38;;;;;;;;;;5084276;28;20271;-63
2023/07/31 09:21:53;;;;;;;1.27;1.13;;;;;;;;;;5073943;28;20238;-61
2023/07/31 09:24:27;;;;;;;3.45;1.20;;;;;;;;;;5077657;28;20211;-61
2023/07/31 09:26:56;;;;;;;1.33;1.30;;;;;;;;;;5066693;28;20329;-61
2023/07/31 09:29:24;;;;;;;1.67;1.55;;;;;;;;;;5065537;28;20267;-61
2023/07/31 09:31:51;;;;;;;1.50;1.40;;;;;;;;;;5066682;28;20341;-61
2023/07/31 09:34:18;;;;;;;4.75;1.50;;;;;;;;;;5066779;28;20226;-61
2023/07/31 09:36:46;;;;;;;1.35;1.20;;;;;;;;;;5084749;28;20207;-61
2023/07/31 09:39:15;;;;;;;2.10;1.65;;;;;;;;;;5069191;28;20353;-61
2023/07/31 09:41:43;;;;;;;3.17;1.30;;;;;;;;;;5079145;28;20211;-61
2023/07/31 09:44:12;;;;;;;2.63;1.85;;;;;;;;;;5087399;28;20231;-61
2023/07/31 09:46:42;;;;;;;3.55;1.60;;;;;;;;;;5087905;28;20665;-61
2023/07/31 09:49:10;;;;;;;1.60;1.48;;;;;;;;;;5088865;28;20759;-61
2023/07/31 09:51:38;;;;;;;2.72;1.15;;;;;;;;;;5088120;28;20211;-60
2023/07/31 09:54:06;;;;;;;2.88;1.27;;;;;;;;;;5088913;28;20309;-61
2023/07/31 09:56:33;;;;;;;1.75;1.65;;;;;;;;;;5087723;28;20209;-61
2023/07/31 09:59:01;;;;;;;1.95;1.50;;;;;;;;;;5086481;28;20564;-61
2023/07/31 10:01:29;;;;;;;3.00;1.60;;;;;;;;;;5088086;28;20216;-61
2023/07/31 10:03:56;;;;;;;3.90;1.48;;;;;;;;;;5088760;28;20590;-61
2023/07/31 10:06:25;;;;;;;1.05;1.05;;;;;;;;;;5072192;28;20207;-61
2023/07/31 10:08:53;;;;;;;2.63;1.77;;;;;;;;;;5076044;28;20205;-61
2023/07/31 10:11:20;;;;;;;2.67;1.60;;;;;;;;;;5088604;28;20897;-61
2023/07/31 10:13:48;;;;;;;5.28;1.60;;;;;;;;;;5088428;28;20206;-61
2023/07/31 10:16:16;;;;;;;3.28;1.70;;;;;;;;;;5085317;28;20210;-61
2023/07/31 10:18:45;;;;;;;2.25;1.55;;;;;;;;;;5078890;28;20695;-62
2023/07/31 10:21:12;;;;;;;5.00;1.50;;;;;;;;;;5068018;28;20214;-61
2023/07/31 10:23:40;;;;;;;2.10;1.25;;;;;;;;;;5078178;28;20250;-61
2023/07/31 10:26:09;;;;;;;2.10;1.38;;;;;;;;;;5071695;28;20819;-62
2023/07/31 10:28:36;;;;;;;4.22;1.23;;;;;;;;;;5088565;28;20568;-61
2023/07/31 10:31:04;;;;;;;3.53;1.55;;;;;;;;;;5079433;28;20246;-61
2023/07/31 10:33:33;;;;;;;4.70;1.77;;;;;;;;;;5082648;28;20207;-61
2023/07/31 10:36:18;;;;;;;3.13;1.58;;;;;;;;;;5085208;28;20206;-61
2023/07/31 10:38:46;;;;;;;1.60;1.55;;;;;;;;;;5064453;28;20806;-62
2023/07/31 10:41:13;;;;;;;3.92;1.30;;;;;;;;;;5085290;28;20210;-61
2023/07/31 10:43:40;;;;;;;2.35;1.30;;;;;;;;;;5065270;28;20246;-61
2023/07/31 10:46:09;;;;;;;3.13;1.80;;;;;;;;;;5067318;28;20207;-61
2023/07/31 10:48:37;;;;;;;3.03;1.60;;;;;;;;;;5077494;28;20234;-61
2023/07/31 10:51:09;;;;;;;1.50;1.40;;;;;;;;;;5088099;28;20534;-61
2023/07/31 10:53:38;;;;;;;4.32;1.60;;;;;;;;;;5087142;28;20573;-61
2023/07/31 10:56:06;;;;;;;2.80;1.52;;;;;;;;;;5087569;28;20251;-61
2023/07/31 10:58:34;;;;;;;1.77;1.67;;;;;;;;;;5087159;28;20214;-61
2023/07/31 11:01:02;;;;;;;4.05;1.80;;;;;;;;;;5087702;28;20199;-60
2023/07/31 11:03:42;;;;;;;1.50;1.50;;;;;;;;;;5086609;28;20228;-61
2023/07/31 11:06:09;;;;;;;1.77;1.67;;;;;;;;;;5087920;28;20202;-65
2023/07/31 11:08:43;;;;;;;2.25;1.65;;;;;;;;;;5086833;28;20226;-65
2023/07/31 11:11:11;;;;;;;1.83;1.40;;;;;;;;;;5087550;28;20541;-65
2023/07/31 11:13:42;;;;;;;2.20;1.50;;;;;;;;;;5087810;28;20206;-65
2023/07/31 11:16:09;;;;;;;2.47;1.30;;;;;;;;;;5086939;28;20259;-61
2023/07/31 11:18:36;;;;;;;2.47;1.48;;;;;;;;;;5076162;28;20227;-60
2023/07/31 11:21:03;;;;;;;1.40;1.30;;;;;;;;;;5073866;28;20214;-61
2023/07/31 11:23:30;;;;;;;1.52;1.42;;;;;;;;;;5082743;28;20207;-61
2023/07/31 11:26:02;;;;;;;4.00;1.52;;;;;;;;;;5080223;28;20206;-61
2023/07/31 11:28:33;;;;;;;2.55;1.65;;;;;;;;;;5084552;28;20546;-61
2023/07/31 11:31:03;;;;;;;1.45;1.45;;;;;;;;;;5086225;28;20662;-61
2023/07/31 11:33:30;;;;;;;3.03;1.70;;;;;;;;;;5073044;28;20212;-61
2023/07/31 11:35:57;;;;;;;2.08;1.88;;;;;;;;;;5081614;28;20664;-61
2023/07/31 11:38:25;;;;;;;2.30;1.60;;;;;;;;;;5070802;28;20199;-62
2023/07/31 11:40:56;;;;;;;2.65;1.40;;;;;;;;;;5084659;28;20214;-61
2023/07/31 11:43:24;;;;;;;2.85;1.63;;;;;;;;;;5091056;28;20229;-61
2023/07/31 11:45:52;;;;;;;2.03;1.38;;;;;;;;;;5084617;28;20209;-61
2023/07/31 11:48:26;;;;;;;1.65;1.55;;;;;;;;;;5090756;28;20211;-61
2023/07/31 11:50:53;;;;;;;4.25;1.50;;;;;;;;;;5090042;28;20221;-61
2023/07/31 11:53:22;;;;;;;2.65;1.75;;;;;;;;;;5083375;28;20207;-62
2023/07/31 11:55:50;;;;;;;3.30;1.40;;;;;;;;;;5078816;28;20221;-62
2023/07/31 11:58:19;;;;;;;1.52;1.42;;;;;;;;;;5072942;28;20227;-61
2023/07/31 12:00:48;;;;;;;1.75;1.65;;;;;;;;;;5085455;28;20230;-61
2023/07/31 12:03:15;;;;;;;1.30;1.20;;;;;;;;;;5087593;28;20206;-61
2023/07/31 12:05:42;;;;;;;1.20;1.20;;;;;;;;;;5086116;28;20717;-61
2023/07/31 12:08:13;;;;;;;2.83;1.42;;;;;;;;;;5085275;28;20206;-61
2023/07/31 12:10:40;;;;;;;1.90;1.50;;;;;;;;;;5090019;28;20302;-62
2023/07/31 12:13:10;;;;;;;3.03;2.20;;;;;;;;;;5089301;28;20210;-61
2023/07/31 12:15:41;;;;;;;2.00;1.52;;;;;;;;;;5089550;28;20271;-61
2023/07/31 12:18:11;;;;;;;1.40;1.25;;;;;;;;;;5071888;28;20225;-61
2023/07/31 12:20:42;;;;;;;3.08;1.50;;;;;;;;;;5087556;28;20233;-62
2023/07/31 12:23:14;;;;;;;2.80;1.88;;;;;;;;;;5089428;28;20206;-61
2023/07/31 12:25:41;;;;;;;1.48;1.38;;;;;;;;;;5090701;28;20203;-60
2023/07/31 12:28:11;;;;;;;1.58;1.48;;;;;;;;;;5086318;28;20669;-61
2023/07/31 12:30:39;;;;;;;2.47;1.20;;;;;;;;;;5071028;28;20291;-60
2023/07/31 12:33:06;;;;;;;3.13;1.40;;;;;;;;;;5077221;28;20699;-61
2023/07/31 12:35:38;;;;;;;1.58;1.48;;;;;;;;;;5070613;28;20264;-61
2023/07/31 12:38:05;;;;;;;2.97;1.52;;;;;;;;;;5071703;28;20588;-62
2023/07/31 12:40:33;;;;;;;3.00;1.77;;;;;;;;;;5082115;28;20234;-62
2023/07/31 12:43:03;;;;;;;1.85;1.75;;;;;;;;;;5090037;28;20222;-61
2023/07/31 12:45:30;;;;;;;1.60;1.60;;;;;;;;;;5089858;28;20302;-61
2023/07/31 12:47:57;;;;;;;1.95;1.75;;;;;;;;;;5089519;28;20210;-61
2023/07/31 12:50:25;;;;;;;3.08;1.35;;;;;;;;;;5081997;28;20202;-61
2023/07/31 12:52:54;;;;;;;1.73;1.50;;;;;;;;;;5090390;28;20245;-63
2023/07/31 12:55:21;;;;;;;1.40;1.30;;;;;;;;;;5086829;28;20202;-67
2023/07/31 12:57:48;;;;;;;2.85;1.67;;;;;;;;;;5090378;28;20213;-65
2023/07/31 13:00:15;;;;;;;1.40;1.40;;;;;;;;;;5090564;28;20241;-65
2023/07/31 13:02:42;;;;;;;2.38;1.90;;;;;;;;;;5089915;28;20289;-60
2023/07/31 13:05:10;;;;;;;2.45;1.65;;;;;;;;;;5072304;28;20202;-60
2023/07/31 13:07:38;;;;;;;2.72;2.03;;;;;;;;;;5088158;28;20727;-61
2023/07/31 13:10:07;;;;;;;3.45;1.60;;;;;;;;;;5088574;28;20201;-60
2023/07/31 13:12:38;;;;;;;1.92;1.73;;;;;;;;;;5088908;28;20214;-60
2023/07/31 13:15:05;;;;;;;1.50;1.45;;;;;;;;;;5081346;28;20209;-59
2023/07/31 13:17:32;;;;;;;1.77;1.67;;;;;;;;;;5089091;28;20205;-59
2023/07/31 13:20:00;;;;;;;1.67;1.30;;;;;;;;;;5072486;28;20715;-59
2023/07/31 13:22:27;;;;;;;1.42;1.33;;;;;;;;;;5069203;28;20215;-61
2023/07/31 13:24:54;;;;;;;1.80;1.33;;;;;;;;;;5073536;28;20696;-62
2023/07/31 13:27:24;;;;;;;1.52;1.38;;;;;;;;;;5079142;28;20207;-61
2023/07/31 13:29:51;;;;;;;1.15;1.15;;;;;;;;;;5074250;28;20294;-62
2023/07/31 13:32:19;;;;;;;1.55;1.50;;;;;;;;;;5068878;28;20336;-61
2023/07/31 13:34:46;;;;;;;3.25;1.70;;;;;;;;;;5069687;28;20591;-62
2023/07/31 13:37:14;;;;;;;2.30;1.38;;;;;;;;;;5069161;28;20218;-62
2023/07/31 13:39:41;;;;;;;1.42;1.38;;;;;;;;;;5069926;28;20230;-61
2023/07/31 13:42:09;;;;;;;3.00;1.48;;;;;;;;;;5089115;28;20210;-61
2023/07/31 13:44:37;;;;;;;4.45;1.52;;;;;;;;;;5076675;28;20230;-60
2023/07/31 13:47:04;;;;;;;1.15;1.15;;;;;;;;;;5081012;28;20379;-61
2023/07/31 13:49:31;;;;;;;2.53;1.60;;;;;;;;;;5081671;28;20574;-60
2023/07/31 13:51:58;;;;;;;1.63;1.63;;;;;;;;;;5080476;28;20207;-60
2023/07/31 13:54:26;;;;;;;2.90;1.00;;;;;;;;;;5068589;28;20199;-61
2023/07/31 13:56:53;;;;;;;2.70;1.38;;;;;;;;;;5074120;28;20214;-60
2023/07/31 13:59:20;;;;;;;2.08;1.55;;;;;;;;;;5079178;28;20598;-60
2023/07/31 14:01:49;;;;;;;1.40;1.30;;;;;;;;;;5068848;28;20203;-64
2023/07/31 14:04:17;;;;;;;2.45;1.33;;;;;;;;;;5083383;28;20213;-61
2023/07/31 14:06:44;;;;;;;2.75;2.15;;;;;;;;;;5086531;28;20213;-62
2023/07/31 14:09:11;;;;;;;2.58;1.50;;;;;;;;;;5086371;28;20210;-62
2023/07/31 14:11:38;;;;;;;1.50;1.35;;;;;;;;;;5088096;28;20737;-60
2023/07/31 14:14:08;;;;;;;1.85;1.60;;;;;;;;;;5087593;28;20683;-61
2023/07/31 14:16:35;;;;;;;1.45;1.35;;;;;;;;;;5088729;28;20494;-61
2023/07/31 14:19:03;;;;;;;2.25;1.65;;;;;;;;;;5086214;28;20225;-61
2023/07/31 14:21:30;;;;;;;1.98;1.88;;;;;;;;;;5088165;28;20249;-61
2023/07/31 14:23:57;;;;;;;1.77;1.60;;;;;;;;;;5084065;28;20214;-61
2023/07/31 14:26:24;;;;;;;1.90;1.20;;;;;;;;;;5085745;28;20233;-60
2023/07/31 14:28:51;;;;;;;4.13;1.38;;;;;;;;;;5085080;28;20560;-61
2023/07/31 14:31:18;;;;;;;3.53;1.70;;;;;;;;;;5081051;28;20237;-61
2023/07/31 14:33:45;;;;;;;2.42;1.40;;;;;;;;;;5086065;28;20210;-61
2023/07/31 14:36:13;;;;;;;1.83;1.48;;;;;;;;;;5072146;28;20194;-62
2023/07/31 14:38:41;;;;;;;1.33;1.20;;;;;;;;;;5076598;28;20209;-61
2023/07/31 14:41:08;;;;;;;1.92;1.40;;;;;;;;;;5086417;28;20229;-61
2023/07/31 14:43:35;;;;;;;3.58;2.08;;;;;;;;;;5086936;28;20247;-61
2023/07/31 14:46:02;;;;;;;3.05;1.40;;;;;;;;;;5071413;28;20288;-61